الصفحة الرئيسية
METAR-TAF:

METAR-TAF

مطار :

مطار نوفوسيبيرسك

نوفوسيبيرسك, روسيا

دائرة عرض: 55-01N, خط طول: 082-38E, ارتفاع: 111 متر

مراقبة الطقس الحالي

تاريخ ووقت الإصدار 15 دقيقة قبل الساعة 02:30UTC
ريح 6 عقدة من الغرب
درجة الحرارة -1°درجة مئوية
الرطوبة 93%
ضغط 1018 hPa
الرؤية: 9000 متر
غيوم متفرقة على ارتفاع 1000 قدم
ملبد بالغيوم على ارتفاع 3300 قدم, مزنة ركامية.
زخات ثلجية خفيفة

METAR: UNNT 230230Z 27003MPS 9000 -SHSN SCT010 OVC033CB M01/M02 Q1018 R25/550150 R16/590150 NOSIG RMK QFE753/1004

زمن: 09:45 (02:45 UTC)

توقعات

تاريخ ووقت الإصدار 45 دقيقة قبل الساعة 02:00UTC
التوقعات صالحة من23 الساعة 03 UTC إلى 24 الساعة 03 UTC
ريح 14 عقدة من الغرب تتزايد حتى 25 عقدة
الرؤية 10 كم أو أكثر
غيوم مفككة على ارتفاع 2000 قدم, مزنة ركامية.
مؤقت
من 23 الساعة 03 UTC إلى 24 الساعة 03 UTC
الرؤية: 3100 متر
غيوم مفككة على ارتفاع 1100 قدم, مزنة ركامية.
زخات ثلجية خفيفة, مطر
أصبح
من 23 الساعة 11 UTC إلى 23 الساعة 13 UTC
ريح 16 عقدة من الجنوب الغربي تتزايد حتى 31 عقدة

TAF: UNNT 230200Z 2303/2403 27007G13MPS 9999 BKN020CB TEMPO 2303/2403 3100 -SHSNRA BKN011CB BECMG 2311/2313 22008G16MPS

أرصاد الطقس والتوقعات من أكثر من 4000 مطار (تقارير الطقس للمطار METAR والتنبؤ بالطقس بالمطارTAF).

المحطات المتاحة هي النقط الصفراء والحمراء على الخريطة.

حرك المؤشر فوق النقطة لمعرفة اسم المحطة.

ثم انقر لمعرفة أرصاد وتوقعات الطقس.

لتغيير الخارطة: اضغط على الأزرار الخضراء مع رمز الصليب الأسود للتكبير. على الزر الأخضر مع شرطة للتصغير، أو على الأسهم الخضراء للخرائط المجاورة.


METAR-TAF: